Time;durP1;ratioP1;P1;durP2;ratioP2;P2;SDS_P1;SDS_P2;PMS_P1;PMS_P2;Temp;Humidity;BMP_temperature;BMP_pressure;BME280_temperature;BME280_humidity;BME280_pressure;Samples;Min_cycle;Max_cycle;Signal;HPM_P1;HPM_P2
2024/04/18 00:01:51;;;;;;;;;8.67;5.67;;;;;-0.17;93.04;99667.60;112854;235;169325;-62
2024/04/18 00:04:28;;;;;;;;;7.00;6.00;;;;;-0.20;93.22;99667.65;112962;232;42042;-61
2024/04/18 00:07:06;;;;;;;;;7.00;6.00;;;;;-0.22;93.26;99671.57;113019;231;40828;-62
2024/04/18 00:09:45;;;;;;;;;8.00;7.00;;;;;-0.24;93.31;99668.93;112877;232;169038;-57
2024/04/18 00:12:23;;;;;;;;;8.00;6.00;;;;;-0.29;93.41;99671.85;112623;232;40058;-57
2024/04/18 00:15:03;;;;;;;;;10.00;7.00;;;;;-0.33;93.47;99672.09;112796;235;169784;-59
2024/04/18 00:17:39;;;;;;;;;6.00;5.33;;;;;-0.37;93.58;99674.86;112940;232;40635;-59
2024/04/18 00:20:18;;;;;;;;;7.00;6.00;;;;;-0.39;93.53;99672.45;112767;232;169137;-58
2024/04/18 00:22:59;;;;;;;;;10.00;7.50;;;;;-0.42;93.59;99670.22;112916;232;41653;-59
2024/04/18 00:25:35;;;;;;;;;6.00;5.00;;;;;-0.46;93.69;99670.39;112754;235;169704;-58
2024/04/18 00:28:09;;;;;;;;;6.33;4.67;;;;;-0.48;93.60;99673.80;112892;232;42022;-58
2024/04/18 00:30:43;;;;;;;;;8.00;5.00;;;;;-0.50;93.57;99673.96;112905;235;40195;-58
2024/04/18 00:33:22;;;;;;;;;8.00;6.00;;;;;-0.54;93.66;99676.08;112702;235;169261;-58
2024/04/18 00:36:06;;;;;;;;;7.00;5.00;;;;;-0.54;93.54;99673.65;112935;232;41493;-59
2024/04/18 00:38:47;;;;;;;;;7.00;6.00;;;;;-0.54;93.61;99675.04;112765;235;169146;-60
2024/04/18 00:41:24;;;;;;;;;7.00;4.00;;;;;-0.56;93.53;99676.63;112907;232;40049;-60
2024/04/18 00:44:07;;;;;;;;;7.00;5.00;;;;;-0.62;93.63;99678.70;112755;231;169216;-58
2024/04/18 00:46:48;;;;;;;;;6.00;5.00;;;;;-0.68;93.57;99680.27;112970;231;41942;-58
2024/04/18 00:49:25;;;;;;;;;6.00;5.00;;;;;-0.68;93.55;99684.73;112945;231;40393;-59
2024/04/18 00:52:02;;;;;;;;;8.50;5.00;;;;;-0.68;93.66;99680.15;112616;231;40978;-58
2024/04/18 00:54:38;;;;;;;;;6.50;5.00;;;;;-0.70;93.70;99678.89;112954;235;40100;-57
2024/04/18 00:57:12;;;;;;;;;7.00;5.00;;;;;-0.70;93.90;99680.15;112832;232;169350;-56
2024/04/18 00:59:54;;;;;;;;;7.50;6.00;;;;;-0.72;93.89;99681.57;112941;235;39826;-56
2024/04/18 01:02:35;;;;;;;;;11.00;7.00;;;;;-0.74;93.79;99681.91;112742;235;169015;-56
2024/04/18 01:05:09;;;;;;;;;10.25;7.00;;;;;-0.76;93.77;99683.17;112881;231;39854;-57
2024/04/18 01:07:50;;;;;;;;;9.00;7.00;;;;;-0.74;93.90;99680.83;112387;232;169412;-58
2024/04/18 01:10:31;;;;;;;;;6.00;5.00;;;;;-0.71;93.97;99685.56;112934;232;40167;-59
2024/04/18 01:13:05;;;;;;;;;6.00;5.00;;;;;-0.71;93.90;99686.20;112943;231;40060;-58
2024/04/18 01:15:39;;;;;;;;;5.00;4.00;;;;;-0.70;93.87;99685.11;112755;232;169694;-58
2024/04/18 01:18:16;;;;;;;;;10.00;7.00;;;;;-0.71;93.93;99685.71;112952;231;40264;-58
2024/04/18 01:20:52;;;;;;;;;10.00;7.00;;;;;-0.72;93.83;99683.71;112555;232;169363;-59
2024/04/18 01:23:30;;;;;;;;;8.00;6.00;;;;;-0.75;93.82;99688.59;112543;232;41002;-62
2024/04/18 01:26:06;;;;;;;;;7.33;5.67;;;;;-0.78;93.96;99691.48;112428;232;169894;-62
2024/04/18 01:28:43;;;;;;;;;9.67;6.00;;;;;-0.81;93.94;99691.55;112571;232;40651;-61
2024/04/18 01:31:22;;;;;;;;;9.00;7.00;;;;;-0.81;93.93;99688.52;112582;232;40039;-62
2024/04/18 01:34:05;;;;;;;;;10.00;8.00;;;;;-0.81;93.86;99690.11;112607;233;41936;-59
2024/04/18 01:36:53;;;;;;;;;12.25;8.00;;;;;-0.84;93.91;99694.80;112983;235;39799;-59
2024/04/18 01:39:28;;;;;;;;;9.00;7.00;;;;;-0.87;94.00;99696.84;112751;232;169690;-59
2024/04/18 01:42:09;;;;;;;;;11.00;8.00;;;;;-0.90;93.89;99693.80;112923;232;40498;-59
2024/04/18 01:44:42;;;;;;;;;8.00;6.00;;;;;-0.89;93.97;99693.50;112772;231;169965;-61
2024/04/18 01:47:22;;;;;;;;;10.00;7.00;;;;;-0.93;93.95;99691.77;112954;231;40544;-61
2024/04/18 01:50:00;;;;;;;;;13.00;8.00;;;;;-0.93;93.97;99692.13;112784;232;171077;-59
2024/04/18 01:52:42;;;;;;;;;11.33;7.33;;;;;-0.92;93.90;99692.39;112929;232;41196;-59
2024/04/18 01:55:25;;;;;;;;;10.00;9.00;;;;;-0.92;93.78;99691.48;112935;232;40919;-62
2024/04/18 01:58:04;;;;;;;;;13.00;9.00;;;;;-0.94;93.69;99696.44;112579;232;40323;-59
2024/04/18 02:00:45;;;;;;;;;8.00;6.00;;;;;-0.97;93.80;99700.77;112896;232;41256;-61
2024/04/18 02:03:20;;;;;;;;;8.00;6.00;;;;;-0.97;93.87;99700.47;112738;232;169046;-58
2024/04/18 02:05:58;;;;;;;;;11.67;8.00;;;;;-1.03;93.96;99704.27;112980;232;39872;-57
2024/04/18 02:08:40;;;;;;;;;7.33;6.00;;;;;-1.06;94.03;99706.48;112736;232;169177;-61
2024/04/18 02:11:20;;;;;;;;;15.33;11.67;;;;;-1.07;94.04;99711.85;112981;231;40701;-62
2024/04/18 02:13:58;;;;;;;;;9.00;6.00;;;;;-1.09;93.89;99714.92;112420;232;171227;-58
2024/04/18 02:16:35;;;;;;;;;10.33;8.00;;;;;-1.11;93.90;99712.61;112518;232;41715;-58
2024/04/18 02:19:12;;;;;;;;;11.00;8.00;;;;;-1.13;93.85;99710.87;112589;232;40067;-62
2024/04/18 02:21:47;;;;;;;;;12.00;8.00;;;;;-1.16;93.91;99711.31;112336;236;169373;-62
2024/04/18 02:24:21;;;;;;;;;10.00;8.00;;;;;-1.13;93.82;99712.22;112562;232;40188;-58
2024/04/18 02:26:59;;;;;;;;;9.00;7.00;;;;;-1.12;93.89;99711.47;112363;232;169436;-58
2024/04/18 02:29:36;;;;;;;;;9.00;7.00;;;;;-1.15;93.83;99708.33;112525;232;40279;-58
2024/04/18 02:32:09;;;;;;;;;9.25;6.50;;;;;-1.16;93.99;99714.15;112364;233;169374;-58
2024/04/18 02:34:44;;;;;;;;;10.00;7.75;;;;;-1.18;93.96;99711.83;112916;232;41920;-59
2024/04/18 02:37:18;;;;;;;;;13.00;9.00;;;;;-1.21;93.97;99710.42;112947;235;40440;-59
2024/04/18 02:39:57;;;;;;;;;9.00;5.00;;;;;-1.26;93.97;99705.04;112757;232;169164;-57
2024/04/18 02:42:34;;;;;;;;;10.00;8.25;;;;;-1.30;94.00;99707.34;112899;231;41641;-57
2024/04/18 02:45:09;;;;;;;;;10.00;7.67;;;;;-1.33;94.14;99704.81;112772;232;169505;-61
2024/04/18 02:47:44;;;;;;;;;7.00;6.00;;;;;-1.33;94.14;99707.81;113012;231;41182;-61
2024/04/18 02:50:20;;;;;;;;;12.33;7.00;;;;;-1.32;94.16;99708.41;112816;235;169580;-56
2024/04/18 02:53:04;;;;;;;;;10.00;8.00;;;;;-1.31;94.28;99708.52;112942;231;41660;-56
2024/04/18 02:55:39;;;;;;;;;9.33;7.00;;;;;-1.30;94.17;99710.04;112419;233;169581;-58
2024/04/18 02:58:19;;;;;;;;;7.00;6.00;;;;;-1.31;94.09;99711.84;112967;232;41060;-58
2024/04/18 03:00:56;;;;;;;;;11.00;7.00;;;;;-1.31;94.23;99711.30;112954;231;41016;-60
2024/04/18 03:03:35;;;;;;;;;10.00;7.00;;;;;-1.30;94.21;99712.63;112740;235;169253;-57
2024/04/18 03:06:10;;;;;;;;;10.00;8.00;;;;;-1.31;94.28;99710.64;112898;231;40179;-57
2024/04/18 03:08:48;;;;;;;;;11.00;8.00;;;;;-1.33;94.22;99707.96;112746;231;169280;-59
2024/04/18 03:11:22;;;;;;;;;11.00;8.00;;;;;-1.38;94.16;99709.63;112928;231;41334;-71
2024/04/18 03:13:58;;;;;;;;;16.33;10.67;;;;;-1.38;94.15;99707.31;112758;231;169530;-58
2024/04/18 03:16:40;;;;;;;;;9.00;6.00;;;;;-1.37;94.23;99711.86;112916;231;41850;-57
2024/04/18 03:19:16;;;;;;;;;9.50;6.50;;;;;-1.35;94.27;99715.04;112858;232;40063;-60
2024/04/18 03:21:50;;;;;;;;;7.00;6.00;;;;;-1.35;94.30;99712.60;112715;232;169200;-59
2024/04/18 03:24:29;;;;;;;;;9.00;6.50;;;;;-1.37;94.29;99708.71;112922;232;39522;-56
2024/04/18 03:27:06;;;;;;;;;12.00;8.00;;;;;-1.39;94.35;99712.72;112774;232;169152;-56
2024/04/18 03:29:49;;;;;;;;;10.00;8.00;;;;;-1.39;94.36;99711.68;112985;231;41469;-60
2024/04/18 03:32:28;;;;;;;;;11.00;7.00;;;;;-1.36;94.38;99717.55;112781;232;169449;-59
2024/04/18 03:35:09;;;;;;;;;16.00;12.00;;;;;-1.31;94.39;99713.23;112944;235;40743;-59
2024/04/18 03:37:44;;;;;;;;;8.00;6.50;;;;;-1.29;94.47;99715.95;112814;231;170025;-61
2024/04/18 03:40:29;;;;;;;;;7.00;6.00;;;;;-1.28;94.45;99718.86;112946;231;40923;-60
2024/04/18 03:43:05;;;;;;;;;9.00;7.00;;;;;-1.27;94.48;99717.17;112562;233;40091;-59
2024/04/18 03:45:42;;;;;;;;;9.00;7.00;;;;;-1.25;94.55;99720.13;112737;232;170019;-58
2024/04/18 03:48:16;;;;;;;;;11.00;8.00;;;;;-1.23;94.55;99723.16;112859;231;40107;-59
2024/04/18 03:50:53;;;;;;;;;12.33;7.67;;;;;-1.21;94.58;99723.92;112695;232;169683;-60
2024/04/18 03:53:33;;;;;;;;;13.25;9.00;;;;;-1.22;94.61;99724.63;112635;232;40313;-58
2024/04/18 03:56:17;;;;;;;;;9.00;8.00;;;;;-1.15;94.72;99729.05;112805;231;169786;-58
2024/04/18 03:58:57;;;;;;;;;9.50;7.75;;;;;-1.09;94.62;99727.60;112959;231;41506;-58
2024/04/18 04:01:36;;;;;;;;;9.00;7.00;;;;;-1.04;94.76;99730.56;112808;231;169437;-58
2024/04/18 04:04:12;;;;;;;;;11.00;8.50;;;;;-0.96;94.67;99732.72;113000;231;39686;-58
2024/04/18 04:06:46;;;;;;;;;8.00;6.00;;;;;-0.89;94.71;99734.66;113020;231;41008;-58
2024/04/18 04:09:32;;;;;;;;;11.00;8.00;;;;;-0.80;94.65;99736.02;112888;231;169417;-61
2024/04/18 04:12:10;;;;;;;;;12.00;8.00;;;;;-0.73;94.72;99740.86;113108;231;39670;-61
2024/04/18 04:14:47;;;;;;;;;10.50;8.00;;;;;-0.55;94.86;99742.34;112893;231;169710;-58
2024/04/18 04:17:23;;;;;;;;;13.00;9.00;;;;;-0.28;95.09;99737.23;113017;231;40822;-56
2024/04/18 04:19:57;;;;;;;;;18.00;12.00;;;;;0.25;95.43;99741.38;112831;231;169940;-60
2024/04/18 04:22:35;;;;;;;;;14.00;11.00;;;;;1.03;95.51;99742.34;112999;231;40214;-60
2024/04/18 04:25:10;;;;;;;;;15.33;10.33;;;;;1.50;95.30;99737.59;112991;231;41510;-60
2024/04/18 04:27:50;;;;;;;;;11.00;9.00;;;;;1.69;94.59;99740.01;112848;231;170363;-60
2024/04/18 04:30:26;;;;;;;;;13.00;10.00;;;;;1.87;94.44;99739.57;113008;234;40506;-57
2024/04/18 04:33:05;;;;;;;;;14.00;11.00;;;;;2.66;95.48;99739.33;112753;231;169148;-58
2024/04/18 04:35:50;;;;;;;;;15.00;11.00;;;;;3.97;95.92;99744.09;112995;231;40055;-60
2024/04/18 04:38:25;;;;;;;;;19.00;16.00;;;;;5.74;94.65;99736.97;112750;231;170329;-59
2024/04/18 04:41:02;;;;;;;;;23.00;16.50;;;;;7.21;93.34;99735.04;113044;234;40673;-60
2024/04/18 04:43:42;;;;;;;;;14.67;12.00;;;;;7.84;91.43;99730.63;112932;234;170644;-59
2024/04/18 04:46:30;;;;;;;;;17.00;12.00;;;;;7.24;90.18;99729.85;112955;231;40490;-56
2024/04/18 04:49:06;;;;;;;;;20.00;14.00;;;;;7.53;90.05;99734.15;113038;234;41692;-61
2024/04/18 04:51:52;;;;;;;;;16.00;13.00;;;;;7.05;87.44;99734.91;112809;234;169417;-61
2024/04/18 04:54:30;;;;;;;;;20.75;15.00;;;;;5.77;86.83;99744.33;113060;231;40013;-55
2024/04/18 04:57:04;;;;;;;;;20.00;15.67;;;;;4.87;87.16;99743.44;112804;231;170494;-55
2024/04/18 04:59:44;;;;;;;;;16.33;14.00;;;;;4.26;87.61;99742.33;112930;231;41584;-59
2024/04/18 05:02:31;;;;;;;;;15.00;12.00;;;;;3.87;87.70;99740.70;112815;231;169002;-59
2024/04/18 05:05:11;;;;;;;;;16.75;13.25;;;;;3.74;88.10;99743.57;112962;234;41442;-58
2024/04/18 05:07:45;;;;;;;;;19.00;15.00;;;;;4.70;88.83;99741.75;112827;231;169436;-56
2024/04/18 05:10:23;;;;;;;;;20.67;16.00;;;;;5.26;87.82;99743.16;113053;234;40359;-59
2024/04/18 05:13:01;;;;;;;;;18.00;13.00;;;;;4.90;87.37;99740.66;112658;232;41247;-59
2024/04/18 05:15:37;;;;;;;;;12.00;9.33;;;;;4.78;87.49;99740.60;112744;231;169376;-55
2024/04/18 05:18:17;;;;;;;;;16.00;14.00;;;;;4.94;87.71;99744.33;112978;231;40439;-57
2024/04/18 05:20:50;;;;;;;;;10.75;8.25;;;;;5.94;87.95;99742.04;112823;231;169557;-56
2024/04/18 05:23:25;;;;;;;;;15.00;12.00;;;;;6.64;87.36;99743.33;113040;234;39895;-61
2024/04/18 05:26:07;;;;;;;;;20.00;15.00;;;;;8.12;87.34;99740.25;112977;234;169745;-61
2024/04/18 05:31:36;;;;;;;;;20.67;14.00;;;;;9.80;84.19;99736.95;112952;231;169682;-56
2024/04/18 05:34:22;;;;;;;;;14.00;12.00;;;;;10.21;82.77;99733.30;112974;231;40093;-58
2024/04/18 05:37:03;;;;;;;;;20.50;16.50;;;;;10.90;82.93;99738.40;113069;231;40387;-59
2024/04/18 05:39:40;;;;;;;;;18.50;15.00;;;;;11.92;82.43;99739.86;112799;234;170019;-58
2024/04/18 05:42:15;;;;;;;;;22.00;18.67;;;;;13.11;80.57;99740.27;113104;234;41041;-57
2024/04/18 05:44:52;;;;;;;;;22.00;17.00;;;;;14.12;80.39;99738.02;112828;234;170039;-60
2024/04/18 05:47:30;;;;;;;;;23.00;17.00;;;;;15.03;78.98;99736.55;113008;231;40351;-58
2024/04/18 05:50:08;;;;;;;;;21.00;17.00;;;;;15.59;75.56;99739.00;112849;231;170191;-58
2024/04/18 05:52:46;;;;;;;;;22.50;16.00;;;;;15.64;75.65;99744.13;112980;234;41735;-55
2024/04/18 05:55:23;;;;;;;;;18.50;14.50;;;;;15.97;73.65;99746.06;113127;231;40667;-60
2024/04/18 05:58:00;;;;;;;;;20.33;15.67;;;;;16.10;72.26;99749.61;112609;231;41258;-54
2024/04/18 06:00:40;;;;;;;;;19.00;16.00;;;;;15.48;71.66;99757.90;113109;231;40347;-60
2024/04/18 06:03:18;;;;;;;;;19.00;15.00;;;;;14.74;69.47;99757.77;112833;231;169958;-58
2024/04/18 06:05:54;;;;;;;;;19.67;16.00;;;;;13.49;68.77;99766.09;112980;235;40206;-58
2024/04/18 06:08:29;;;;;;;;;20.00;16.00;;;;;12.03;68.45;99768.91;112406;233;169668;-58
2024/04/18 06:11:05;;;;;;;;;21.00;18.00;;;;;10.81;68.55;99769.11;112952;235;40911;-57
2024/04/18 06:13:45;;;;;;;;;19.00;15.00;;;;;9.69;69.10;99778.66;112841;235;169967;-55
2024/04/18 06:16:20;;;;;;;;;21.00;17.00;;;;;9.17;69.69;99779.80;112912;232;39871;-55
2024/04/18 06:18:57;;;;;;;;;22.00;17.00;;;;;8.87;70.43;99781.77;112933;235;41048;-58
2024/04/18 06:21:33;;;;;;;;;15.00;13.00;;;;;8.47;71.37;99782.70;112788;232;170216;-58
2024/04/18 06:24:10;;;;;;;;;17.00;13.33;;;;;8.22;72.19;99783.69;112944;232;39981;-60
2024/04/18 06:26:48;;;;;;;;;14.00;12.00;;;;;8.06;72.71;99779.18;112830;232;169563;-59
2024/04/18 06:29:22;;;;;;;;;15.00;12.67;;;;;7.89;72.60;99779.75;112910;231;40362;-59
2024/04/18 06:32:03;;;;;;;;;13.67;11.00;;;;;7.53;73.07;99785.88;112755;232;169925;-58
2024/04/18 06:34:38;;;;;;;;;16.00;11.00;;;;;7.29;73.18;99787.99;112907;232;41774;-56
2024/04/18 06:37:16;;;;;;;;;15.50;11.00;;;;;7.01;73.45;99793.81;112975;232;40668;-55
2024/04/18 06:39:57;;;;;;;;;14.00;10.33;;;;;6.62;74.04;99799.17;112462;235;169565;-55
2024/04/18 06:42:32;;;;;;;;;14.00;11.00;;;;;6.53;74.69;99802.14;112992;235;40089;-58
2024/04/18 06:45:08;;;;;;;;;14.50;11.00;;;;;6.87;75.48;99803.66;112807;232;169240;-58
2024/04/18 06:47:44;;;;;;;;;12.00;10.00;;;;;7.39;75.77;99804.14;112933;231;40025;-56
2024/04/18 06:50:21;;;;;;;;;10.00;8.00;;;;;7.85;75.46;99798.98;112248;232;169349;-58
2024/04/18 06:52:57;;;;;;;;;16.75;13.00;;;;;8.06;75.36;99800.95;112958;231;40539;-55
2024/04/18 06:55:34;;;;;;;;;14.00;10.00;;;;;7.89;75.07;99801.39;112945;231;40355;-56
2024/04/18 06:58:14;;;;;;;;;13.67;10.67;;;;;7.93;75.08;99805.24;112577;233;41455;-59
2024/04/18 07:00:52;;;;;;;;;14.00;10.00;;;;;7.99;74.88;99806.08;112978;231;39987;-61
2024/04/18 07:03:33;;;;;;;;;12.00;10.00;;;;;7.84;74.77;99810.66;112776;231;169383;-57
2024/04/18 07:06:08;;;;;;;;;11.00;9.00;;;;;7.81;74.92;99812.58;112850;235;40789;-57
2024/04/18 07:08:43;;;;;;;;;12.00;10.00;;;;;7.73;74.73;99811.60;112755;231;168886;-53
2024/04/18 07:11:21;;;;;;;;;9.50;8.50;;;;;7.52;75.19;99810.91;112550;233;43193;-53
2024/04/18 07:14:00;;;;;;;;;11.00;9.67;;;;;7.83;75.44;99816.55;112736;231;169266;-58
2024/04/18 07:16:38;;;;;;;;;10.00;8.00;;;;;7.95;75.33;99811.85;112928;231;40849;-59
2024/04/18 07:19:17;;;;;;;;;16.00;12.00;;;;;8.11;75.38;99813.41;113008;231;40127;-55
2024/04/18 07:21:57;;;;;;;;;13.50;11.00;;;;;8.84;75.80;99808.39;112738;232;169358;-59
2024/04/18 07:24:34;;;;;;;;;14.75;11.00;;;;;9.79;75.69;99806.86;113024;231;40444;-60
2024/04/18 07:27:09;;;;;;;;;11.00;9.33;;;;;10.32;74.32;99811.01;112798;235;170270;-60
2024/04/18 07:29:51;;;;;;;;;11.00;9.33;;;;;10.74;73.90;99806.89;113051;231;40008;-59
2024/04/18 07:32:29;;;;;;;;;13.50;10.00;;;;;11.04;72.83;99805.58;112826;235;169552;-56
2024/04/18 07:35:08;;;;;;;;;12.33;9.67;;;;;10.82;71.98;99812.34;112932;235;42894;-56
2024/04/18 07:37:44;;;;;;;;;12.00;10.50;;;;;10.42;71.78;99813.45;112742;231;170757;-57
2024/04/18 07:40:22;;;;;;;;;11.00;9.00;;;;;10.26;72.70;99818.46;112939;231;39635;-59
2024/04/18 07:42:58;;;;;;;;;10.00;8.00;;;;;10.38;72.06;99818.96;112949;231;41958;-59
2024/04/18 07:45:33;;;;;;;;;13.00;10.00;;;;;10.02;71.76;99821.82;112717;232;169429;-60
2024/04/18 07:48:12;;;;;;;;;11.00;9.00;;;;;9.58;71.29;99821.29;112939;231;40710;-58
2024/04/18 07:50:57;;;;;;;;;10.50;9.00;;;;;9.36;71.45;99825.02;112485;235;169519;-54
2024/04/18 07:53:35;;;;;;;;;11.00;9.00;;;;;9.29;71.83;99821.95;112884;232;41590;-57
2024/04/18 07:56:15;;;;;;;;;12.00;10.00;;;;;9.14;71.84;99825.70;112869;231;170084;-59
2024/04/18 07:58:52;;;;;;;;;10.00;9.00;;;;;9.55;72.88;99825.98;112941;232;40721;-57
2024/04/18 08:01:31;;;;;;;;;8.00;6.75;;;;;9.87;71.90;99826.13;112913;232;41712;-57
2024/04/18 08:04:10;;;;;;;;;10.00;7.00;;;;;10.03;72.00;99821.33;112586;233;41171;-56
2024/04/18 08:06:48;;;;;;;;;11.00;9.00;;;;;10.00;71.10;99822.42;112972;232;41143;-56
2024/04/18 08:09:27;;;;;;;;;8.25;7.00;;;;;9.52;70.65;99821.16;112838;232;170044;-58
2024/04/18 08:12:08;;;;;;;;;8.33;7.00;;;;;9.05;70.50;99820.11;112985;231;40000;-59
2024/04/18 08:14:42;;;;;;;;;8.00;7.00;;;;;8.74;70.78;99820.98;112858;231;169225;-54
2024/04/18 08:17:22;;;;;;;;;8.00;7.00;;;;;8.30;71.28;99822.46;112921;230;40531;-54
2024/04/18 08:20:02;;;;;;;;;8.50;7.00;;;;;8.08;71.66;99821.13;112858;230;169471;-54
2024/04/18 08:22:39;;;;;;;;;7.50;6.00;;;;;7.98;71.91;99821.45;112958;234;39932;-55
2024/04/18 08:25:17;;;;;;;;;7.67;5.33;;;;;7.80;72.20;99826.71;112970;230;39776;-56
2024/04/18 08:27:57;;;;;;;;;8.00;6.00;;;;;7.48;72.30;99830.38;112742;231;169172;-56
2024/04/18 08:30:34;;;;;;;;;7.00;4.50;;;;;7.30;72.31;99831.90;112981;234;39853;-55
2024/04/18 08:33:12;;;;;;;;;8.00;6.00;;;;;7.18;72.78;99831.70;112512;233;169467;-58
2024/04/18 08:35:51;;;;;;;;;6.00;5.00;;;;;7.31;73.32;99832.46;113006;231;40461;-58
2024/04/18 08:38:27;;;;;;;;;5.50;5.00;;;;;7.47;73.64;99829.34;112791;234;168493;-56
2024/04/18 08:41:10;;;;;;;;;5.00;4.00;;;;;7.73;73.80;99827.05;112981;232;41306;-58
2024/04/18 08:43:51;;;;;;;;;6.00;5.00;;;;;7.88;73.99;99824.77;112793;234;169236;-60
2024/04/18 08:46:33;;;;;;;;;7.00;5.00;;;;;8.12;73.86;99820.45;112936;231;41287;-59
2024/04/18 08:49:11;;;;;;;;;6.00;5.00;;;;;9.02;74.41;99817.23;113006;234;40334;-59
2024/04/18 08:51:49;;;;;;;;;8.00;6.00;;;;;9.61;73.76;99812.84;112788;232;169787;-59
2024/04/18 08:54:29;;;;;;;;;8.00;6.00;;;;;10.43;73.96;99805.11;113006;234;41061;-57
2024/04/18 08:57:05;;;;;;;;;6.50;5.00;;;;;10.74;72.32;99799.67;112742;234;169745;-55
2024/04/18 08:59:42;;;;;;;;;6.00;5.00;;;;;10.96;71.28;99800.44;112916;234;40394;-58
2024/04/18 09:02:25;;;;;;;;;4.75;4.25;;;;;11.26;70.45;99806.53;112809;230;169966;-54
2024/04/18 09:05:04;;;;;;;;;7.00;5.00;;;;;11.40;69.57;99804.91;112914;234;39697;-58
2024/04/18 09:07:40;;;;;;;;;9.00;6.00;;;;;11.56;69.30;99804.94;112967;230;39798;-57
2024/04/18 09:10:23;;;;;;;;;9.00;7.00;;;;;11.74;68.50;99805.23;112888;232;40748;-61
2024/04/18 09:13:01;;;;;;;;;8.00;6.25;;;;;11.71;67.96;99808.52;112921;230;40900;-56
2024/04/18 09:15:48;;;;;;;;;7.00;5.00;;;;;11.60;67.72;99804.92;112784;234;169508;-58
2024/04/18 09:18:26;;;;;;;;;7.00;6.00;;;;;11.62;67.22;99807.59;113022;230;40196;-57
2024/04/18 09:21:00;;;;;;;;;8.33;6.00;;;;;11.62;66.75;99808.71;112805;234;169481;-56
2024/04/18 09:23:38;;;;;;;;;6.00;4.67;;;;;11.53;66.65;99808.89;113020;230;40341;-56
2024/04/18 09:26:18;;;;;;;;;7.00;6.00;;;;;11.48;66.70;99801.28;112734;232;169574;-57
2024/04/18 09:28:55;;;;;;;;;7.33;6.00;;;;;11.71;66.88;99803.63;112980;234;40172;-57
2024/04/18 09:31:35;;;;;;;;;9.25;8.00;;;;;12.12;66.21;99799.16;113027;230;40209;-55
2024/04/18 09:34:11;;;;;;;;;8.00;7.00;;;;;12.14;66.17;99796.27;112823;234;169184;-59
2024/04/18 09:36:47;;;;;;;;;7.67;6.33;;;;;12.55;66.07;99793.42;113043;230;40119;-60
2024/04/18 09:39:27;;;;;;;;;8.25;7.00;;;;;12.99;65.92;99794.57;112796;231;169372;-58
2024/04/18 09:42:14;;;;;;;;;7.00;7.00;;;;;13.19;65.22;99792.06;112981;231;40850;-58
2024/04/18 09:44:54;;;;;;;;;9.00;8.00;;;;;13.10;64.85;99783.88;112889;234;169354;-60
2024/04/18 09:47:32;;;;;;;;;7.00;6.50;;;;;13.08;64.24;99782.55;112985;231;40020;-60
2024/04/18 09:50:13;;;;;;;;;9.00;7.33;;;;;13.12;64.09;99784.99;112832;230;169524;-57
2024/04/18 09:52:50;;;;;;;;;9.00;7.00;;;;;12.92;63.19;99779.30;112891;234;41636;-56
2024/04/18 09:55:26;;;;;;;;;8.75;6.50;;;;;12.75;62.87;99780.55;113007;230;40377;-57
2024/04/18 09:58:05;;;;;;;;;7.00;5.00;;;;;12.87;62.97;99772.38;112765;230;169440;-59
2024/04/18 10:00:40;;;;;;;;;9.00;7.00;;;;;12.91;62.86;99774.15;112981;233;40590;-58
2024/04/18 10:03:15;;;;;;;;;8.00;6.00;;;;;12.72;61.24;99780.27;112802;234;169479;-59
2024/04/18 10:05:57;;;;;;;;;6.00;5.00;;;;;12.03;61.59;99781.39;112988;234;41725;-55
2024/04/18 10:08:46;;;;;;;;;8.00;6.33;;;;;11.09;61.91;99787.64;112852;230;169373;-56
2024/04/18 10:11:23;;;;;;;;;7.00;4.00;;;;;10.33;63.23;99800.09;112947;230;40758;-56
2024/04/18 10:14:04;;;;;;;;;7.00;5.00;;;;;9.79;64.22;99814.23;112835;230;169592;-59
2024/04/18 10:16:50;;;;;;;;;6.50;6.00;;;;;9.01;65.91;99821.48;112969;234;41321;-58
2024/04/18 10:19:32;;;;;;;;;6.50;5.00;;;;;8.58;66.87;99825.00;112960;234;42253;-60
2024/04/18 10:22:17;;;;;;;;;4.00;3.00;;;;;8.13;67.60;99816.31;112774;231;168859;-60
2024/04/18 10:24:54;;;;;;;;;5.00;4.00;;;;;7.97;68.85;99815.14;112987;234;42241;-58
2024/04/18 10:27:31;;;;;;;;;6.00;6.00;;;;;8.18;70.00;99813.56;112814;231;169164;-58
2024/04/18 10:30:14;;;;;;;;;4.00;4.00;;;;;8.44;70.93;99810.78;112897;230;40452;-58
2024/04/18 10:32:52;;;;;;;;;15.00;11.00;;;;;8.82;71.76;99809.92;112652;231;169379;-57
2024/04/18 10:35:35;;;;;;;;;6.00;5.00;;;;;8.78;71.92;99811.48;112717;232;41360;-57
2024/04/18 10:38:23;;;;;;;;;4.00;3.00;;;;;8.48;72.26;99810.09;112799;230;170048;-58
2024/04/18 10:41:06;;;;;;;;;5.00;3.00;;;;;8.46;72.38;99804.90;113001;232;40214;-57
2024/04/18 10:43:45;;;;;;;;;4.00;4.00;;;;;8.41;72.95;99808.61;113207;231;41479;-58
2024/04/18 10:46:21;;;;;;;;;4.00;3.00;;;;;8.51;73.48;99805.16;112844;234;40628;-59
2024/04/18 10:49:00;;;;;;;;;4.00;3.00;;;;;8.92;73.80;99805.06;113177;231;40345;-57
2024/04/18 10:51:41;;;;;;;;;6.00;4.00;;;;;9.19;73.70;99806.56;112782;232;169336;-54
2024/04/18 10:54:19;;;;;;;;;7.00;5.00;;;;;9.37;74.16;99808.70;113112;231;41168;-57
2024/04/18 10:56:59;;;;;;;;;6.00;4.00;;;;;9.75;74.45;99811.52;112913;231;169081;-55
2024/04/18 10:59:47;;;;;;;;;4.00;4.00;;;;;9.88;74.28;99811.27;113013;234;39829;-57
2024/04/18 11:02:31;;;;;;;;;6.00;5.00;;;;;10.03;74.45;99808.24;112810;231;170558;-58
2024/04/18 11:05:11;;;;;;;;;6.00;4.00;;;;;10.39;73.98;99802.69;112642;233;40478;-57
2024/04/18 11:07:50;;;;;;;;;6.67;5.33;;;;;10.44;73.77;99804.40;113023;231;40406;-57
2024/04/18 11:10:30;;;;;;;;;7.00;6.00;;;;;10.38;73.54;99809.34;112929;232;40941;-55
2024/04/18 11:13:21;;;;;;;;;6.75;5.00;;;;;10.17;73.73;99808.54;112980;230;40712;-59
2024/04/18 11:15:57;;;;;;;;;5.00;4.00;;;;;10.21;74.15;99811.83;112770;230;169343;-59
2024/04/18 11:18:36;;;;;;;;;7.67;5.00;;;;;10.31;74.66;99809.94;113061;234;41729;-54
2024/04/18 11:21:16;;;;;;;;;8.00;7.00;;;;;10.61;74.86;99801.79;112765;230;169332;-51
2024/04/18 11:23:55;;;;;;;;;8.67;7.00;;;;;10.72;74.45;99799.61;112986;230;40723;-54
2024/04/18 11:26:34;;;;;;;;;8.00;6.00;;;;;10.71;74.12;99802.36;112710;235;169423;-57
2024/04/18 11:29:12;;;;;;;;;8.00;6.50;;;;;10.68;74.02;99805.84;112932;234;39648;-56
2024/04/18 11:31:48;;;;;;;;;6.00;6.00;;;;;10.69;74.21;99809.46;112955;230;40437;-57
2024/04/18 11:34:26;;;;;;;;;6.00;5.00;;;;;10.55;74.04;99811.59;112620;230;41139;-57
2024/04/18 11:37:03;;;;;;;;;9.00;7.00;;;;;10.47;74.26;99810.65;112939;234;41861;-56
2024/04/18 11:39:46;;;;;;;;;8.00;7.00;;;;;10.40;74.20;99808.70;112800;231;169455;-58
2024/04/18 11:42:23;;;;;;;;;6.50;4.50;;;;;10.25;73.84;99813.44;113040;230;40614;-57
2024/04/18 11:45:00;;;;;;;;;7.50;6.00;;;;;10.19;74.01;99811.33;112822;231;169470;-58
2024/04/18 11:47:40;;;;;;;;;10.00;7.00;;;;;10.27;73.75;99808.49;112987;234;40337;-59
2024/04/18 11:50:21;;;;;;;;;6.33;5.33;;;;;10.47;73.93;99805.13;112801;234;169583;-57
2024/04/18 11:53:06;;;;;;;;;6.50;5.00;;;;;10.67;73.96;99804.35;112907;234;40129;-58
2024/04/18 11:55:41;;;;;;;;;5.67;4.67;;;;;10.87;74.32;99799.27;112928;230;40347;-58
2024/04/18 11:58:16;;;;;;;;;5.00;4.00;;;;;11.24;74.11;99796.38;112773;234;169707;-59
2024/04/18 12:00:55;;;;;;;;;6.50;5.00;;;;;11.50;73.27;99790.66;112979;234;40831;-58
2024/04/18 12:03:36;;;;;;;;;8.75;6.00;;;;;11.50;72.16;99786.10;112831;230;170356;-55
2024/04/18 12:06:14;;;;;;;;;4.00;3.00;;;;;10.96;71.71;99793.77;112577;232;41559;-56
2024/04/18 12:08:51;;;;;;;;;4.00;4.00;;;;;10.50;71.74;99804.45;112798;231;170104;-55
2024/04/18 12:11:30;;;;;;;;;3.00;3.00;;;;;9.96;71.08;99808.33;112940;231;40184;-53
2024/04/18 12:14:14;;;;;;;;;3.00;3.00;;;;;10.05;71.13;99802.36;112815;234;169225;-54
2024/04/18 12:16:56;;;;;;;;;3.75;3.25;;;;;10.18;71.40;99802.98;112956;232;39724;-53
2024/04/18 12:19:32;;;;;;;;;3.00;3.00;;;;;10.20;70.75;99798.21;112980;234;40453;-56
2024/04/18 12:22:10;;;;;;;;;3.00;3.00;;;;;10.21;70.62;99797.17;112765;234;170352;-55